Time;durP1;ratioP1;P1;durP2;ratioP2;P2;SDS_P1;SDS_P2;PMS_P1;PMS_P2;Temp;Humidity;BMP_temperature;BMP_pressure;BME280_temperature;BME280_humidity;BME280_pressure;Samples;Min_cycle;Max_cycle;Signal;HPM_P1;HPM_P2
2023/02/28 00:00:13;;;;;;;;;;;4.40;99.90;;;;;;5034039;28;19925;-81
2023/02/28 00:02:39;;;;;;;;;;;3.80;99.90;;;;;;5051625;28;19960;-82
2023/02/28 00:05:06;;;;;;;;;;;4.20;99.90;;;;;;5048120;28;20027;-81
2023/02/28 00:07:33;;;;;;;;;;;3.80;99.90;;;;;;5050579;28;19921;-81
2023/02/28 00:09:58;;;;;;;;;;;3.90;99.90;;;;;;5051510;28;19921;-79
2023/02/28 00:12:24;;;;;;;;;;;4.00;99.90;;;;;;5050676;28;19920;-80
2023/02/28 00:14:50;;;;;;;;;;;3.80;99.90;;;;;;5060155;28;20604;-80
2023/02/28 00:17:21;;;;;;;;;;;3.70;99.90;;;;;;5040158;28;19917;-80
2023/02/28 00:19:48;;;;;;;;;;;3.90;99.90;;;;;;5022601;28;19920;-80
2023/02/28 00:22:17;;;;;;;;;;;4.10;99.90;;;;;;5051683;28;19927;-81
2023/02/28 00:24:43;;;;;;;;;;;3.90;99.90;;;;;;5049241;28;19923;-78
2023/02/28 00:27:09;;;;;;;;;;;3.90;99.90;;;;;;5049988;28;19917;-81
2023/02/28 00:29:35;;;;;;;;;;;4.00;99.90;;;;;;5049420;28;19920;-80
2023/02/28 00:32:00;;;;;;;;;;;4.00;99.90;;;;;;5010599;28;1184949;-78
2023/02/28 00:34:26;;;;;;;;;;;3.70;99.90;;;;;;5050467;28;19966;-79
2023/02/28 00:36:54;;;;;;;;;;;3.90;99.90;;;;;;5049240;28;19955;-79
2023/02/28 00:39:20;;;;;;;;;;;4.00;99.90;;;;;;5050975;28;20385;-82
2023/02/28 00:41:46;;;;;;;;;;;4.10;99.90;;;;;;5050946;28;19954;-80
2023/02/28 00:44:12;;;;;;;;;;;4.20;99.90;;;;;;5067617;28;19967;-81
2023/02/28 00:46:37;;;;;;;;;;;4.00;99.90;;;;;;5056401;28;19917;-79
2023/02/28 00:49:03;;;;;;;;;;;4.30;99.90;;;;;;5070913;28;19924;-80
2023/02/28 00:51:28;;;;;;;;;;;4.10;99.90;;;;;;5070385;28;20365;-79
2023/02/28 00:53:54;;;;;;;;;;;4.10;99.90;;;;;;5040800;28;20001;-78
2023/02/28 00:56:20;;;;;;;;;;;4.30;99.90;;;;;;5050595;28;19931;-79
2023/02/28 00:58:45;;;;;;;;;;;4.40;99.90;;;;;;5049449;28;20366;-80
2023/02/28 01:01:11;;;;;;;;;;;4.20;99.90;;;;;;5051735;28;19916;-79
2023/02/28 01:03:37;;;;;;;;;;;4.20;99.90;;;;;;5050124;28;20285;-79
2023/02/28 01:06:02;;;;;;;;;;;4.30;99.90;;;;;;5050363;28;19921;-81
2023/02/28 01:08:29;;;;;;;;;;;3.90;99.90;;;;;;5032982;28;19921;-79
2023/02/28 01:10:55;;;;;;;;;;;4.10;99.90;;;;;;5038926;28;19924;-82
2023/02/28 01:13:23;;;;;;;;;;;4.00;99.90;;;;;;5071299;28;19923;-79
2023/02/28 01:15:50;;;;;;;;;;;4.20;99.90;;;;;;5053721;28;19920;-81
2023/02/28 01:18:15;;;;;;;;;;;4.40;99.90;;;;;;5056639;28;19917;-79
2023/02/28 01:20:41;;;;;;;;;;;4.30;99.90;;;;;;5049885;28;19920;-80
2023/02/28 01:23:06;;;;;;;;;;;4.00;99.90;;;;;;5051237;28;19966;-81
2023/02/28 01:25:34;;;;;;;;;;;4.10;99.90;;;;;;5050827;28;20385;-79
2023/02/28 01:27:59;;;;;;;;;;;4.30;99.90;;;;;;5026067;28;20011;-79
2023/02/28 01:30:25;;;;;;;;;;;4.50;99.90;;;;;;5031766;28;19998;-79
2023/02/28 01:32:53;;;;;;;;;;;3.80;99.90;;;;;;5048992;28;19944;-80
2023/02/28 01:35:18;;;;;;;;;;;4.10;99.90;;;;;;5049444;28;19924;-79
2023/02/28 01:37:44;;;;;;;;;;;3.80;99.90;;;;;;5082245;28;20300;-80
2023/02/28 01:40:13;;;;;;;;;;;4.30;99.90;;;;;;5051247;28;19927;-80
2023/02/28 01:42:39;;;;;;;;;;;4.00;99.90;;;;;;5050173;28;19967;-80
2023/02/28 01:45:14;;;;;;;;;;;4.40;99.90;;;;;;5049685;28;19920;-80
2023/02/28 01:47:42;;;;;;;;;;;4.00;99.90;;;;;;5049275;28;19924;-79
2023/02/28 01:50:12;;;;;;;;;;;4.10;99.90;;;;;;5049071;28;19928;-78
2023/02/28 01:52:37;;;;;;;;;;;3.90;99.90;;;;;;5049376;28;20437;-80
2023/02/28 01:55:05;;;;;;;;;;;4.20;99.90;;;;;;5049029;28;19935;-79
2023/02/28 01:57:37;;;;;;;;;;;3.90;99.90;;;;;;5049929;28;19923;-79
2023/02/28 02:00:13;;;;;;;;;;;3.70;99.90;;;;;;5048369;28;19928;-81
2023/02/28 02:02:39;;;;;;;;;;;3.80;99.90;;;;;;5083325;28;19924;-79
2023/02/28 02:05:09;;;;;;;;;;;4.30;99.90;;;;;;5032567;28;19921;-80
2023/02/28 02:07:35;;;;;;;;;;;3.90;99.90;;;;;;5049101;28;19920;-79
2023/02/28 02:10:07;;;;;;;;;;;4.20;99.90;;;;;;5032930;28;19920;-80
2023/02/28 02:12:56;;;;;;;;;;;4.10;99.90;;;;;;5049005;28;19916;-80
2023/02/28 02:15:21;;;;;;;;;;;4.10;99.90;;;;;;5029601;28;19921;-79
2023/02/28 02:17:49;;;;;;;;;;;4.10;99.90;;;;;;5029236;28;19932;-80
2023/02/28 02:20:34;;;;;;;;;;;4.00;99.90;;;;;;5042389;28;20286;-79
2023/02/28 02:23:15;;;;;;;;;;;4.10;99.90;;;;;;5050165;28;19924;-79
2023/02/28 02:25:40;;;;;;;;;;;4.00;99.90;;;;;;5049660;28;20380;-81
2023/02/28 02:28:25;;;;;;;;;;;4.20;99.90;;;;;;5050974;28;20007;-81
2023/02/28 02:30:56;;;;;;;;;;;3.90;99.90;;;;;;5048423;28;19956;-78
2023/02/28 02:33:41;;;;;;;;;;;4.20;99.90;;;;;;5049044;28;19925;-81
2023/02/28 02:36:33;;;;;;;;;;;3.80;99.90;;;;;;5065445;28;20012;-81
2023/02/28 02:39:08;;;;;;;;;;;4.10;99.90;;;;;;5049029;28;20370;-81
2023/02/28 02:41:51;;;;;;;;;;;3.80;99.90;;;;;;5050915;28;19924;-81
2023/02/28 02:44:28;;;;;;;;;;;4.30;99.90;;;;;;5050267;28;19923;-78
2023/02/28 02:47:05;;;;;;;;;;;4.10;99.90;;;;;;5048570;28;20452;-81
2023/02/28 02:49:32;;;;;;;;;;;4.20;99.90;;;;;;5049453;28;19964;-81
2023/02/28 02:52:01;;;;;;;;;;;4.60;99.90;;;;;;5049290;28;20325;-81
2023/02/28 02:54:28;;;;;;;;;;;4.60;99.90;;;;;;5050233;28;20011;-81
2023/02/28 02:56:56;;;;;;;;;;;4.20;99.90;;;;;;5049253;28;20273;-79
2023/02/28 02:59:23;;;;;;;;;;;4.40;99.90;;;;;;5051981;28;19916;-81
2023/02/28 03:01:54;;;;;;;;;;;4.30;99.90;;;;;;5036065;28;19924;-82
2023/02/28 03:04:21;;;;;;;;;;;4.50;99.90;;;;;;5035450;28;19917;-81
2023/02/28 03:06:47;;;;;;;;;;;4.50;99.90;;;;;;5052730;28;20420;-82
2023/02/28 03:09:13;;;;;;;;;;;4.20;99.90;;;;;;5052438;28;19948;-79
2023/02/28 03:11:42;;;;;;;;;;;4.10;99.90;;;;;;5054046;28;19923;-81
2023/02/28 03:14:18;;;;;;;;;;;4.40;99.90;;;;;;5051753;28;19917;-83
2023/02/28 03:16:50;;;;;;;;;;;4.00;99.90;;;;;;5036048;28;20011;-79
2023/02/28 03:19:32;;;;;;;;;;;4.10;99.90;;;;;;5036194;28;19927;-83
2023/02/28 03:22:10;;;;;;;;;;;4.10;99.90;;;;;;5052406;28;19956;-81
2023/02/28 03:24:37;;;;;;;;;;;4.00;99.90;;;;;;5052011;28;19966;-80
2023/02/28 03:27:17;;;;;;;;;;;4.00;99.90;;;;;;5051874;28;20396;-83
2023/02/28 03:29:46;;;;;;;;;;;3.80;99.90;;;;;;5035559;28;20301;-82
2023/02/28 03:32:30;;;;;;;;;;;4.10;99.90;;;;;;5051437;28;19925;-79
2023/02/28 03:35:05;;;;;;;;;;;4.10;99.90;;;;;;5038478;28;19921;-79
2023/02/28 03:37:35;;;;;;;;;;;4.10;99.90;;;;;;5052327;28;20010;-79
2023/02/28 03:40:06;;;;;;;;;;;4.40;99.90;;;;;;5052153;28;19923;-81
2023/02/28 03:42:34;;;;;;;;;;;4.20;99.90;;;;;;5035701;28;19931;-79
2023/02/28 03:45:02;;;;;;;;;;;4.40;99.90;;;;;;5034352;28;19975;-83
2023/02/28 03:47:33;;;;;;;;;;;4.50;99.90;;;;;;5052121;28;19923;-80
2023/02/28 03:50:06;;;;;;;;;;;4.00;99.90;;;;;;5051648;28;19924;-83
2023/02/28 03:52:34;;;;;;;;;;;4.00;99.90;;;;;;5051762;28;19929;-80
2023/02/28 03:55:06;;;;;;;;;;;4.10;99.90;;;;;;5051215;28;20374;-83
2023/02/28 03:57:39;;;;;;;;;;;3.90;99.90;;;;;;5052270;28;19923;-81
2023/02/28 04:00:05;;;;;;;;;;;3.80;99.90;;;;;;5052181;28;20332;-81
2023/02/28 04:02:31;;;;;;;;;;;3.40;99.90;;;;;;5051077;28;19921;-82
2023/02/28 04:04:57;;;;;;;;;;;4.10;99.90;;;;;;5051367;28;20003;-81
2023/02/28 04:07:22;;;;;;;;;;;4.10;99.90;;;;;;5042447;28;20394;-82
2023/02/28 04:09:48;;;;;;;;;;;3.90;99.90;;;;;;5051026;28;20329;-82
2023/02/28 04:12:13;;;;;;;;;;;3.90;99.90;;;;;;5068202;28;19916;-81
2023/02/28 04:14:39;;;;;;;;;;;3.90;99.90;;;;;;5071574;28;19920;-84
2023/02/28 04:17:05;;;;;;;;;;;3.70;99.90;;;;;;5055391;28;19920;-83
2023/02/28 04:19:30;;;;;;;;;;;3.70;99.90;;;;;;5035317;28;20386;-83
2023/02/28 04:21:56;;;;;;;;;;;3.80;99.90;;;;;;5051235;28;19967;-82
2023/02/28 04:24:23;;;;;;;;;;;3.70;99.90;;;;;;5051867;28;19920;-80
2023/02/28 04:26:49;;;;;;;;;;;3.80;99.90;;;;;;5050587;28;20362;-81
2023/02/28 04:29:23;;;;;;;;;;;3.90;99.90;;;;;;5051328;28;20311;-83
2023/02/28 04:31:48;;;;;;;;;;;3.70;99.90;;;;;;5039076;28;19979;-80
2023/02/28 04:34:14;;;;;;;;;;;3.20;99.90;;;;;;5050684;28;19964;-81
2023/02/28 04:36:40;;;;;;;;;;;3.50;99.90;;;;;;5049566;28;19932;-81
2023/02/28 04:39:05;;;;;;;;;;;3.80;99.90;;;;;;5034257;28;19924;-82
2023/02/28 04:41:31;;;;;;;;;;;3.80;99.90;;;;;;5034789;28;19970;-80
2023/02/28 04:43:57;;;;;;;;;;;3.70;99.90;;;;;;5018062;28;20282;-82
2023/02/28 04:46:22;;;;;;;;;;;3.80;99.90;;;;;;5051349;28;19920;-81
2023/02/28 04:48:48;;;;;;;;;;;3.60;99.90;;;;;;5050873;28;19920;-82
2023/02/28 04:51:14;;;;;;;;;;;3.80;99.90;;;;;;5050943;28;19942;-82
2023/02/28 04:53:41;;;;;;;;;;;3.50;99.90;;;;;;5051649;28;19921;-81
2023/02/28 04:56:07;;;;;;;;;;;3.60;99.90;;;;;;5050805;28;19925;-82
2023/02/28 04:58:33;;;;;;;;;;;3.30;99.90;;;;;;5040184;28;19921;-81
2023/02/28 05:01:12;;;;;;;;;;;3.90;99.90;;;;;;5014750;28;19921;-81
2023/02/28 05:03:41;;;;;;;;;;;3.10;99.90;;;;;;5031723;28;20003;-84
2023/02/28 05:06:07;;;;;;;;;;;3.10;99.90;;;;;;5031267;28;20015;-84
2023/02/28 05:08:33;;;;;;;;;;;3.40;99.90;;;;;;5041696;28;19931;-81
2023/02/28 05:11:00;;;;;;;;;;;3.10;99.90;;;;;;5051732;28;20007;-84
2023/02/28 05:13:26;;;;;;;;;;;3.30;99.90;;;;;;5050885;28;19920;-84
2023/02/28 05:15:52;;;;;;;;;;;3.10;99.90;;;;;;5050936;28;19935;-81
2023/02/28 05:18:17;;;;;;;;;;;3.70;99.90;;;;;;5049754;28;19924;-83
2023/02/28 05:20:43;;;;;;;;;;;3.30;99.90;;;;;;5050578;28;20369;-81
2023/02/28 05:23:11;;;;;;;;;;;3.10;99.90;;;;;;5050932;28;20355;-81
2023/02/28 05:25:36;;;;;;;;;;;3.30;99.90;;;;;;5051141;28;19970;-85
2023/02/28 05:28:02;;;;;;;;;;;3.00;99.90;;;;;;5050283;28;19968;-81
2023/02/28 05:30:27;;;;;;;;;;;2.90;99.90;;;;;;5050510;28;20429;-82
2023/02/28 05:32:53;;;;;;;;;;;3.00;99.90;;;;;;5050572;28;20386;-79
2023/02/28 05:35:19;;;;;;;;;;;2.80;99.90;;;;;;5050911;28;20356;-80
2023/02/28 05:37:50;;;;;;;;;;;3.20;99.90;;;;;;5050875;28;19962;-79
2023/02/28 05:40:17;;;;;;;;;;;3.10;99.90;;;;;;5050357;28;19921;-84
2023/02/28 05:42:42;;;;;;;;;;;2.80;99.90;;;;;;5052042;28;19925;-82
2023/02/28 05:45:09;;;;;;;;;;;3.30;99.90;;;;;;5050261;28;19971;-80
2023/02/28 05:47:35;;;;;;;;;;;2.70;99.90;;;;;;5040578;28;19924;-84
2023/02/28 05:50:05;;;;;;;;;;;3.20;99.90;;;;;;5031785;28;19924;-82
2023/02/28 05:52:30;;;;;;;;;;;2.70;99.90;;;;;;5033584;28;20268;-82
2023/02/28 05:54:56;;;;;;;;;;;2.40;99.90;;;;;;5031701;28;19921;-81
2023/02/28 05:57:22;;;;;;;;;;;3.20;99.90;;;;;;5020116;28;19925;-85
2023/02/28 05:59:48;;;;;;;;;;;3.00;99.90;;;;;;5050780;28;19920;-83
2023/02/28 06:02:15;;;;;;;;;;;2.80;99.90;;;;;;5050555;28;20263;-83
2023/02/28 06:04:41;;;;;;;;;;;3.10;99.90;;;;;;5050578;28;19928;-81
2023/02/28 06:07:10;;;;;;;;;;;2.70;99.90;;;;;;5051771;28;19916;-81
2023/02/28 06:09:36;;;;;;;;;;;3.20;99.90;;;;;;5049775;28;19959;-81
2023/02/28 06:12:09;;;;;;;;;;;3.20;99.90;;;;;;5064493;28;19939;-80
2023/02/28 06:14:36;;;;;;;;;;;2.90;99.90;;;;;;5066490;28;19924;-82
2023/02/28 06:17:08;;;;;;;;;;;3.20;99.90;;;;;;5050486;28;19984;-79
2023/02/28 06:19:41;;;;;;;;;;;2.80;99.90;;;;;;5070524;28;20023;-82
2023/02/28 06:22:06;;;;;;;;;;;3.30;99.90;;;;;;5033174;28;19924;-84
2023/02/28 06:24:32;;;;;;;;;;;3.00;99.90;;;;;;5050210;28;19988;-82
2023/02/28 06:27:04;;;;;;;;;;;3.20;99.90;;;;;;5050151;28;19924;-81
2023/02/28 06:29:34;;;;;;;;;;;3.30;99.90;;;;;;5049413;28;19946;-80
2023/02/28 06:31:59;;;;;;;;;;;2.70;99.90;;;;;;5053105;28;19920;-83
2023/02/28 06:34:25;;;;;;;;;;;2.60;99.90;;;;;;5035581;28;20484;-78
2023/02/28 06:36:51;;;;;;;;;;;2.80;99.90;;;;;;5053988;28;19928;-82
2023/02/28 06:39:17;;;;;;;;;;;2.90;99.90;;;;;;5048527;28;19925;-81
2023/02/28 06:41:45;;;;;;;;;;;3.00;99.90;;;;;;5033287;28;20009;-82
2023/02/28 06:44:15;;;;;;;;;;;3.10;99.90;;;;;;5032958;28;19917;-80
2023/02/28 06:46:41;;;;;;;;;;;2.80;99.90;;;;;;5044763;28;19917;-81
2023/02/28 06:49:10;;;;;;;;;;;3.50;99.90;;;;;;5053205;28;19916;-81
2023/02/28 06:51:37;;;;;;;;;;;2.60;99.90;;;;;;5053679;28;19917;-79
2023/02/28 06:54:03;;;;;;;;;;;3.20;99.90;;;;;;5053501;28;19925;-82
2023/02/28 06:56:29;;;;;;;;;;;2.50;99.90;;;;;;5052755;28;19925;-82
2023/02/28 06:58:55;;;;;;;;;;;3.00;99.90;;;;;;5053307;28;20720;-82
2023/02/28 07:01:23;;;;;;;;;;;2.60;99.90;;;;;;5051700;28;20011;-83
2023/02/28 07:03:52;;;;;;;;;;;3.00;99.90;;;;;;5053223;28;19967;-82
2023/02/28 07:06:22;;;;;;;;;;;2.80;99.90;;;;;;5052853;28;20344;-83
2023/02/28 07:08:48;;;;;;;;;;;3.10;99.90;;;;;;5053216;28;19970;-80
2023/02/28 07:11:13;;;;;;;;;;;2.80;99.90;;;;;;5060763;28;19916;-81
2023/02/28 07:13:39;;;;;;;;;;;3.10;99.90;;;;;;5074161;28;19923;-80
2023/02/28 07:16:05;;;;;;;;;;;2.90;99.90;;;;;;5072952;28;19945;-81
2023/02/28 07:18:31;;;;;;;;;;;2.50;99.90;;;;;;5072265;28;19920;-80
2023/02/28 07:20:57;;;;;;;;;;;2.70;99.90;;;;;;5065640;28;19943;-82
2023/02/28 07:23:22;;;;;;;;;;;2.70;99.90;;;;;;5016713;28;19928;-82
2023/02/28 07:25:49;;;;;;;;;;;2.50;99.90;;;;;;5020106;28;19921;-80
2023/02/28 07:28:14;;;;;;;;;;;2.80;99.90;;;;;;5043231;28;19917;-80
2023/02/28 07:30:40;;;;;;;;;;;3.00;99.90;;;;;;5036530;28;19928;-80
2023/02/28 07:33:06;;;;;;;;;;;3.10;99.90;;;;;;5050169;28;19924;-83
2023/02/28 07:35:31;;;;;;;;;;;2.80;99.90;;;;;;5052088;28;19924;-78
2023/02/28 07:37:58;;;;;;;;;;;3.00;99.90;;;;;;5052733;28;19944;-81
2023/02/28 07:40:23;;;;;;;;;;;2.90;99.90;;;;;;5035846;28;20019;-84
2023/02/28 07:42:49;;;;;;;;;;;2.90;99.90;;;;;;5044294;28;20434;-84
2023/02/28 07:45:14;;;;;;;;;;;3.40;99.90;;;;;;5032173;28;19927;-81
2023/02/28 07:47:41;;;;;;;;;;;2.90;99.90;;;;;;5052054;28;19920;-80
2023/02/28 07:50:08;;;;;;;;;;;2.70;99.90;;;;;;5035406;28;19917;-80
2023/02/28 07:52:34;;;;;;;;;;;2.60;99.90;;;;;;5051833;28;20370;-80
2023/02/28 07:54:59;;;;;;;;;;;3.30;99.90;;;;;;5035438;28;19928;-82
2023/02/28 07:57:25;;;;;;;;;;;3.20;99.90;;;;;;5051778;28;19960;-84
2023/02/28 07:59:50;;;;;;;;;;;2.70;99.90;;;;;;5035632;28;19921;-81
2023/02/28 08:02:18;;;;;;;;;;;3.30;99.90;;;;;;5051905;28;19948;-79
2023/02/28 08:04:44;;;;;;;;;;;3.00;99.90;;;;;;5035198;28;20757;-81
2023/02/28 08:07:12;;;;;;;;;;;2.80;99.90;;;;;;5042228;28;19917;-81
2023/02/28 08:09:38;;;;;;;;;;;3.50;99.90;;;;;;5052159;28;19924;-81
2023/02/28 08:12:04;;;;;;;;;;;2.90;99.90;;;;;;5052698;28;19920;-81
2023/02/28 08:14:30;;;;;;;;;;;3.00;99.90;;;;;;5052836;28;19917;-84
2023/02/28 08:16:55;;;;;;;;;;;3.30;99.90;;;;;;5053627;28;20384;-78
2023/02/28 08:19:21;;;;;;;;;;;3.40;99.90;;;;;;5041834;28;19921;-80
2023/02/28 08:21:47;;;;;;;;;;;3.00;99.90;;;;;;5052181;28;20339;-83
2023/02/28 08:24:13;;;;;;;;;;;3.40;99.90;;;;;;5052778;28;20008;-81
2023/02/28 08:26:39;;;;;;;;;;;3.70;99.90;;;;;;5051893;28;20032;-80
2023/02/28 08:29:04;;;;;;;;;;;3.80;99.90;;;;;;5034970;28;20013;-82
2023/02/28 08:31:30;;;;;;;;;;;3.50;99.90;;;;;;5049579;28;19920;-83
2023/02/28 08:33:58;;;;;;;;;;;3.70;99.90;;;;;;5017951;28;19925;-82
2023/02/28 08:36:24;;;;;;;;;;;3.30;99.90;;;;;;5051360;28;19928;-80
2023/02/28 08:38:51;;;;;;;;;;;3.80;99.90;;;;;;5035059;28;19921;-80
2023/02/28 08:41:16;;;;;;;;;;;4.00;99.90;;;;;;5051105;28;19927;-81
2023/02/28 08:43:42;;;;;;;;;;;4.40;99.90;;;;;;5033566;28;20429;-80
2023/02/28 08:46:10;;;;;;;;;;;3.90;99.90;;;;;;5052202;28;19923;-79
2023/02/28 08:48:37;;;;;;;;;;;4.40;99.90;;;;;;5034030;28;19921;-81
2023/02/28 08:51:04;;;;;;;;;;;4.90;99.90;;;;;;5051249;28;19920;-80
2023/02/28 08:53:30;;;;;;;;;;;4.30;99.90;;;;;;5038012;28;19935;-79
2023/02/28 08:55:57;;;;;;;;;;;5.10;99.90;;;;;;5050377;28;19924;-79
2023/02/28 08:58:23;;;;;;;;;;;5.00;99.90;;;;;;5052225;28;19920;-79
2023/02/28 09:00:48;;;;;;;;;;;4.80;99.90;;;;;;5053539;28;19935;-82
2023/02/28 09:03:14;;;;;;;;;;;5.40;99.90;;;;;;5054437;28;19921;-81
2023/02/28 09:05:39;;;;;;;;;;;5.10;99.90;;;;;;5053869;28;19917;-82
2023/02/28 09:08:05;;;;;;;;;;;5.30;99.90;;;;;;5067342;28;19917;-80
2023/02/28 09:10:30;;;;;;;;;;;5.60;99.90;;;;;;5053764;28;19916;-82
2023/02/28 09:12:56;;;;;;;;;;;5.20;99.90;;;;;;5071172;28;19920;-80
2023/02/28 09:15:21;;;;;;;;;;;5.60;99.90;;;;;;5059519;28;19930;-82
2023/02/28 09:17:47;;;;;;;;;;;5.40;99.90;;;;;;5050630;28;19960;-82
2023/02/28 09:20:13;;;;;;;;;;;5.50;99.90;;;;;;5050908;28;20373;-83
2023/02/28 09:22:38;;;;;;;;;;;5.60;99.90;;;;;;5050348;28;19950;-80
2023/02/28 09:25:04;;;;;;;;;;;5.40;99.90;;;;;;5049773;28;20007;-82
2023/02/28 09:27:31;;;;;;;;;;;5.30;99.90;;;;;;5049462;28;20379;-79
2023/02/28 09:29:57;;;;;;;;;;;5.50;99.90;;;;;;5050107;28;19970;-80
2023/02/28 09:32:24;;;;;;;;;;;5.30;99.90;;;;;;5051121;28;19916;-82
2023/02/28 09:34:50;;;;;;;;;;;5.60;99.90;;;;;;5034846;28;19920;-83
2023/02/28 09:37:15;;;;;;;;;;;5.30;99.90;;;;;;5033863;28;20397;-80
2023/02/28 09:39:42;;;;;;;;;;;5.50;99.90;;;;;;5053622;28;19963;-82
2023/02/28 09:42:13;;;;;;;;;;;5.40;99.90;;;;;;5059009;28;19920;-81
2023/02/28 09:44:41;;;;;;;;;;;5.90;99.90;;;;;;5050283;28;19927;-80
2023/02/28 09:47:14;;;;;;;;;;;5.40;99.90;;;;;;5049656;28;19923;-80
2023/02/28 09:49:41;;;;;;;;;;;5.10;99.90;;;;;;5050120;28;19936;-83
2023/02/28 09:52:19;;;;;;;;;;;5.80;99.90;;;;;;5052253;28;19921;-82
2023/02/28 09:54:45;;;;;;;;;;;4.70;99.90;;;;;;5050118;28;19917;-82
2023/02/28 09:57:11;;;;;;;;;;;5.30;99.90;;;;;;5048335;28;19924;-81
2023/02/28 09:59:43;;;;;;;;;;;5.00;99.90;;;;;;5048546;28;19924;-82
2023/02/28 10:02:17;;;;;;;;;;;5.00;99.90;;;;;;5049776;28;19921;-81
2023/02/28 10:04:51;;;;;;;;;;;5.10;99.90;;;;;;5050111;28;19921;-78
2023/02/28 10:07:32;;;;;;;;;;;5.30;99.90;;;;;;5082673;28;19948;-79
2023/02/28 10:10:00;;;;;;;;;;;5.30;99.90;;;;;;5018144;28;19924;-81
2023/02/28 10:12:32;;;;;;;;;;;5.00;99.90;;;;;;5072224;28;19924;-81
2023/02/28 10:15:03;;;;;;;;;;;5.60;99.90;;;;;;5058182;28;19932;-82
2023/02/28 10:17:38;;;;;;;;;;;5.20;99.90;;;;;;5056915;28;19932;-80
2023/02/28 10:20:11;;;;;;;;;;;5.10;99.90;;;;;;5038878;28;19925;-79
2023/02/28 10:22:51;;;;;;;;;;;5.00;99.90;;;;;;5054540;28;19927;-80
2023/02/28 10:25:18;;;;;;;;;;;5.20;99.90;;;;;;5054146;28;19924;-82
2023/02/28 10:27:44;;;;;;;;;;;5.20;99.90;;;;;;5054903;28;19921;-82
2023/02/28 10:30:10;;;;;;;;;;;5.10;99.90;;;;;;5047905;28;19985;-80
2023/02/28 10:32:38;;;;;;;;;;;5.20;99.90;;;;;;5053272;28;20007;-79
2023/02/28 10:35:11;;;;;;;;;;;5.40;99.90;;;;;;5036978;28;19925;-81
2023/02/28 10:37:38;;;;;;;;;;;5.30;99.90;;;;;;5053274;28;19926;-79
2023/02/28 10:40:24;;;;;;;;;;;5.40;99.90;;;;;;5053504;28;19991;-81
2023/02/28 10:43:00;;;;;;;;;;;5.40;99.90;;;;;;5053219;28;20303;-80
2023/02/28 10:45:27;;;;;;;;;;;5.50;99.90;;;;;;5054110;28;19916;-80
2023/02/28 10:48:01;;;;;;;;;;;5.40;99.90;;;;;;5053588;28;19924;-79
2023/02/28 10:50:29;;;;;;;;;;;5.70;99.90;;;;;;5053248;28;19970;-79
2023/02/28 10:53:04;;;;;;;;;;;6.00;99.90;;;;;;5054032;28;19925;-78
2023/02/28 10:55:31;;;;;;;;;;;6.10;99.90;;;;;;5054218;28;19920;-81
2023/02/28 10:57:57;;;;;;;;;;;5.90;99.90;;;;;;5088885;28;20602;-82
2023/02/28 11:00:31;;;;;;;;;;;6.20;99.90;;;;;;5053331;28;19916;-78
2023/02/28 11:02:56;;;;;;;;;;;6.00;99.90;;;;;;5053205;28;19970;-80
2023/02/28 11:05:32;;;;;;;;;;;6.20;99.90;;;;;;5037375;28;19924;-80
2023/02/28 11:08:18;;;;;;;;;;;6.00;99.90;;;;;;5054311;28;19923;-80
2023/02/28 11:10:45;;;;;;;;;;;6.10;99.90;;;;;;5057116;28;19995;-81
2023/02/28 11:13:19;;;;;;;;;;;6.50;99.90;;;;;;5048943;28;19960;-82
2023/02/28 11:15:50;;;;;;;;;;;6.30;99.90;;;;;;5016345;28;20370;-82
2023/02/28 11:18:35;;;;;;;;;;;6.60;99.90;;;;;;5032857;28;20363;-80
2023/02/28 11:21:02;;;;;;;;;;;6.20;99.90;;;;;;5052737;28;20306;-81
2023/02/28 11:23:30;;;;;;;;;;;6.40;99.90;;;;;;5053482;28;20003;-81
2023/02/28 11:26:00;;;;;;;;;;;6.50;99.90;;;;;;5052981;28;19924;-82
2023/02/28 11:28:44;;;;;;;;;;;6.50;99.90;;;;;;5036122;28;19921;-82
2023/02/28 11:31:16;;;;;;;;;;;6.70;99.90;;;;;;5036054;28;19924;-82
2023/02/28 11:33:44;;;;;;;;;;;6.80;99.90;;;;;;5046519;28;19925;-79
2023/02/28 11:36:24;;;;;;;;;;;7.00;99.90;;;;;;5052705;28;19963;-82
2023/02/28 11:38:50;;;;;;;;;;;6.70;99.90;;;;;;5052825;28;20263;-84
2023/02/28 11:41:36;;;;;;;;;;;6.70;99.90;;;;;;5052283;28;20396;-81
2023/02/28 11:44:20;;;;;;;;;;;6.60;99.90;;;;;;5035084;28;19917;-80
2023/02/28 11:46:51;;;;;;;;;;;6.90;99.90;;;;;;5060547;28;19920;-80
2023/02/28 11:49:30;;;;;;;;;;;7.00;99.90;;;;;;5056831;28;20327;-82
2023/02/28 11:52:08;;;;;;;;;;;7.20;99.90;;;;;;5055431;28;19920;-82
2023/02/28 11:54:52;;;;;;;;;;;7.10;99.90;;;;;;5065036;28;20003;-83
2023/02/28 11:57:18;;;;;;;;;;;6.90;99.90;;;;;;5053626;28;20270;-80
2023/02/28 11:59:53;;;;;;;;;;;6.90;99.90;;;;;;5052107;28;19917;-79
2023/02/28 12:02:22;;;;;;;;;;;6.90;99.90;;;;;;5053549;28;20440;-81
2023/02/28 12:05:00;;;;;;;;;;;6.90;99.90;;;;;;5051539;28;19921;-81
2023/02/28 12:07:32;;;;;;;;;;;7.00;99.90;;;;;;5056276;28;19932;-79
2023/02/28 12:10:16;;;;;;;;;;;7.20;99.90;;;;;;5052128;28;19917;-81
2023/02/28 12:12:45;;;;;;;;;;;7.20;99.90;;;;;;5051753;28;19936;-81
2023/02/28 12:15:17;;;;;;;;;;;7.40;99.90;;;;;;5034880;28;19931;-81
2023/02/28 12:18:01;;;;;;;;;;;7.40;99.90;;;;;;5051406;28;19925;-79
2023/02/28 12:20:26;;;;;;;;;;;7.40;99.90;;;;;;5035009;28;20007;-81
2023/02/28 12:23:11;;;;;;;;;;;7.80;99.90;;;;;;5051630;28;20024;-83
2023/02/28 12:25:59;;;;;;;;;;;8.00;99.90;;;;;;5051108;28;19923;-83
2023/02/28 12:28:28;;;;;;;;;;;8.40;99.90;;;;;;5027656;28;20025;-80
2023/02/28 12:31:00;;;;;;;;;;;8.70;99.90;;;;;;5049995;28;19916;-80
2023/02/28 12:33:30;;;;;;;;;;;8.80;99.90;;;;;;5051536;28;19951;-80
2023/02/28 12:35:56;;;;;;;;;;;8.80;99.90;;;;;;5050208;28;19930;-82
2023/02/28 12:38:31;;;;;;;;;;;8.60;99.90;;;;;;5051429;28;19925;-81
2023/02/28 12:41:02;;;;;;;;;;;8.40;99.90;;;;;;5044964;28;19921;-78
2023/02/28 12:43:40;;;;;;;;;;;8.30;99.90;;;;;;5051016;28;19927;-83
2023/02/28 12:46:12;;;;;;;;;;;8.40;99.90;;;;;;5034443;28;19920;-83
2023/02/28 12:49:04;;;;;;;;;;;8.20;99.90;;;;;;5058266;28;19920;-82
2023/02/28 12:51:34;;;;;;;;;;;8.40;99.90;;;;;;5062620;28;19928;-78
2023/02/28 12:54:26;;;;;;;;;;;8.40;99.90;;;;;;5051409;28;19916;-81
2023/02/28 12:56:56;;;;;;;;;;;8.40;99.90;;;;;;5049297;28;19974;-81
2023/02/28 12:59:22;;;;;;;;;;;8.50;99.90;;;;;;5034513;28;19917;-80
2023/02/28 13:02:00;;;;;;;;;;;8.60;99.90;;;;;;5044223;28;19921;-79
2023/02/28 13:04:41;;;;;;;;;;;8.70;99.90;;;;;;5031005;28;19921;-81
2023/02/28 13:07:16;;;;;;;;;;;8.90;99.90;;;;;;5035555;28;19923;-82
2023/02/28 13:09:51;;;;;;;;;;;9.10;99.90;;;;;;5050709;28;19925;-80
2023/02/28 13:12:16;;;;;;;;;;;9.40;99.90;;;;;;5049265;28;19921;-79
2023/02/28 13:14:42;;;;;;;;;;;9.80;99.90;;;;;;5050525;28;19921;-80
2023/02/28 13:17:11;;;;;;;;;;;9.90;99.90;;;;;;5050267;28;19932;-80
2023/02/28 13:19:43;;;;;;;;;;;10.10;99.90;;;;;;5050532;28;20388;-81
2023/02/28 13:22:20;;;;;;;;;;;10.10;99.90;;;;;;5049552;28;19935;-82
2023/02/28 13:24:47;;;;;;;;;;;10.20;99.90;;;;;;5051925;28;19917;-79
2023/02/28 13:27:15;;;;;;;;;;;10.10;99.90;;;;;;5051651;28;20021;-82
2023/02/28 13:29:44;;;;;;;;;;;9.80;99.90;;;;;;5051233;28;19974;-82
2023/02/28 13:32:10;;;;;;;;;;;9.50;99.90;;;;;;5050059;28;20405;-84
2023/02/28 13:35:03;;;;;;;;;;;9.30;99.90;;;;;;5049578;28;20051;-83
2023/02/28 13:37:29;;;;;;;;;;;9.00;99.90;;;;;;5035688;28;19931;-82
2023/02/28 13:39:55;;;;;;;;;;;8.50;99.90;;;;;;5052317;28;19920;-81
2023/02/28 13:42:35;;;;;;;;;;;8.30;99.90;;;;;;5033332;28;19916;-83
2023/02/28 13:45:01;;;;;;;;;;;8.10;99.90;;;;;;5048972;28;20454;-82
2023/02/28 13:47:29;;;;;;;;;;;8.10;99.90;;;;;;5050497;28;20345;-80
2023/02/28 13:50:14;;;;;;;;;;;8.20;99.90;;;;;;5049596;28;19927;-80
2023/02/28 13:52:52;;;;;;;;;;;8.50;99.90;;;;;;5050415;28;19917;-80
2023/02/28 13:55:31;;;;;;;;;;;9.10;99.90;;;;;;5037317;28;20306;-82
2023/02/28 13:58:03;;;;;;;;;;;9.70;99.90;;;;;;5013503;28;20011;-81
2023/02/28 14:00:37;;;;;;;;;;;10.30;99.90;;;;;;5049373;28;19959;-81
2023/02/28 14:03:10;;;;;;;;;;;10.90;99.90;;;;;;5049158;28;19928;-79
2023/02/28 14:05:37;;;;;;;;;;;11.40;99.90;;;;;;5049963;28;19935;-79
2023/02/28 14:08:06;;;;;;;;;;;11.60;99.90;;;;;;5032974;28;19931;-85
2023/02/28 14:10:45;;;;;;;;;;;11.90;99.90;;;;;;5053429;28;19943;-81
2023/02/28 14:13:33;;;;;;;;;;;12.10;99.90;;;;;;5069782;28;19920;-80
2023/02/28 14:16:00;;;;;;;;;;;12.20;99.90;;;;;;5052394;28;19920;-83
2023/02/28 14:18:31;;;;;;;;;;;11.80;99.90;;;;;;5070307;28;20046;-80
2023/02/28 14:21:01;;;;;;;;;;;11.30;99.90;;;;;;5049044;28;19967;-82
2023/02/28 14:23:39;;;;;;;;;;;11.00;99.90;;;;;;5031134;28;20039;-80
2023/02/28 14:26:17;;;;;;;;;;;11.00;99.90;;;;;;5029505;28;19927;-83
2023/02/28 14:28:45;;;;;;;;;;;11.30;99.90;;;;;;5046558;28;19932;-79
2023/02/28 14:31:34;;;;;;;;;;;12.20;99.90;;;;;;5049129;28;19965;-81
2023/02/28 14:34:23;;;;;;;;;;;12.80;99.90;;;;;;5043372;28;20374;-81
2023/02/28 14:36:49;;;;;;;;;;;13.20;99.00;;;;;;5049910;28;19967;-81
2023/02/28 14:39:16;;;;;;;;;;;13.10;96.90;;;;;;5033803;28;19923;-81
2023/02/28 14:41:45;;;;;;;;;;;13.30;97.40;;;;;;5052571;28;20310;-83